Tetbury, United Kingdom
Current Conditions -  °F | °C
As of 3:08 AM on Tuesday 23 Dec 2014 (Local Time) from EGVA Reporting Station
Overcast Overcast  
Wind Chill: 52°   Ceiling: 2700
Heat Index: 52°   Visibility: 6mi
Dew Point: 45°   Wind: 25mph
Humidity: 76%   Direction: 250°WSW
Pressure: 30.03"   Gusts: 31mph
Location:  51.64°N, 2.16°W
Report Text: EGVA 230308Z AUTO 25022G27KT 9999 BKN027 OVC036 11/07 A3003 RMK AO2 CIG 027V037 BKN V SCT
Loading
Personal Weather Stations






























Interactive Weather Map New forecast layout! Learn more

10-Day Weather Forecast

Advertisements
Track Severe Weather on mobile